sensor_id;sensor_type;location;lat;lon;timestamp;P1;durP1;ratioP1;P2;durP2;ratioP2
41233;SDS011;26968;42.686;23.352;2023-06-10T00:01:40;8.40;;;5.95;;
41233;SDS011;26968;42.686;23.352;2023-06-10T00:04:06;9.90;;;5.47;;
41233;SDS011;26968;42.686;23.352;2023-06-10T00:06:32;10.98;;;6.30;;
41233;SDS011;26968;42.686;23.352;2023-06-10T00:09:02;12.10;;;6.05;;
41233;SDS011;26968;42.686;23.352;2023-06-10T00:11:29;9.13;;;6.70;;
41233;SDS011;26968;42.686;23.352;2023-06-10T00:13:56;14.65;;;6.93;;
41233;SDS011;26968;42.686;23.352;2023-06-10T00:16:21;13.40;;;7.55;;
41233;SDS011;26968;42.686;23.352;2023-06-10T00:18:48;10.95;;;7.00;;
41233;SDS011;26968;42.686;23.352;2023-06-10T00:21:16;12.93;;;7.72;;
41233;SDS011;26968;42.686;23.352;2023-06-10T00:23:41;11.88;;;6.95;;
41233;SDS011;26968;42.686;23.352;2023-06-10T00:26:07;13.05;;;7.43;;
41233;SDS011;26968;42.686;23.352;2023-06-10T00:28:33;20.42;;;7.70;;
41233;SDS011;26968;42.686;23.352;2023-06-10T00:30:58;14.23;;;8.10;;
41233;SDS011;26968;42.686;23.352;2023-06-10T00:33:24;13.73;;;7.60;;
41233;SDS011;26968;42.686;23.352;2023-06-10T00:35:50;17.50;;;7.55;;
41233;SDS011;26968;42.686;23.352;2023-06-10T00:38:15;12.48;;;7.25;;
41233;SDS011;26968;42.686;23.352;2023-06-10T00:40:41;15.27;;;7.15;;
41233;SDS011;26968;42.686;23.352;2023-06-10T00:43:07;12.50;;;7.13;;
41233;SDS011;26968;42.686;23.352;2023-06-10T00:45:32;10.35;;;6.47;;
41233;SDS011;26968;42.686;23.352;2023-06-10T00:47:59;14.70;;;6.60;;
41233;SDS011;26968;42.686;23.352;2023-06-10T00:50:25;17.00;;;6.63;;
41233;SDS011;26968;42.686;23.352;2023-06-10T00:52:51;13.68;;;6.28;;
41233;SDS011;26968;42.686;23.352;2023-06-10T00:55:18;13.35;;;6.30;;
41233;SDS011;26968;42.686;23.352;2023-06-10T00:57:44;13.32;;;6.22;;
41233;SDS011;26968;42.686;23.352;2023-06-10T01:00:11;11.45;;;6.50;;
41233;SDS011;26968;42.686;23.352;2023-06-10T01:02:37;16.17;;;6.55;;
41233;SDS011;26968;42.686;23.352;2023-06-10T01:05:03;10.68;;;6.32;;
41233;SDS011;26968;42.686;23.352;2023-06-10T01:10:32;12.93;;;7.25;;
41233;SDS011;26968;42.686;23.352;2023-06-10T01:13:03;10.13;;;6.95;;
41233;SDS011;26968;42.686;23.352;2023-06-10T01:15:32;13.13;;;7.15;;
41233;SDS011;26968;42.686;23.352;2023-06-10T01:20:28;11.40;;;6.78;;
41233;SDS011;26968;42.686;23.352;2023-06-10T01:22:54;11.13;;;7.57;;
41233;SDS011;26968;42.686;23.352;2023-06-10T01:25:21;13.70;;;7.72;;
41233;SDS011;26968;42.686;23.352;2023-06-10T01:27:54;10.40;;;7.15;;
41233;SDS011;26968;42.686;23.352;2023-06-10T01:30:36;14.57;;;7.18;;
41233;SDS011;26968;42.686;23.352;2023-06-10T01:33:10;12.57;;;6.88;;
41233;SDS011;26968;42.686;23.352;2023-06-10T01:35:39;17.20;;;7.57;;
41233;SDS011;26968;42.686;23.352;2023-06-10T01:38:08;10.10;;;6.60;;
41233;SDS011;26968;42.686;23.352;2023-06-10T01:40:35;18.13;;;7.03;;
41233;SDS011;26968;42.686;23.352;2023-06-10T01:43:01;13.85;;;7.18;;
41233;SDS011;26968;42.686;23.352;2023-06-10T01:45:27;13.82;;;7.40;;
41233;SDS011;26968;42.686;23.352;2023-06-10T01:47:53;13.23;;;7.90;;
41233;SDS011;26968;42.686;23.352;2023-06-10T01:50:18;15.10;;;7.40;;
41233;SDS011;26968;42.686;23.352;2023-06-10T01:52:44;14.13;;;9.20;;
41233;SDS011;26968;42.686;23.352;2023-06-10T01:55:10;15.52;;;9.25;;
41233;SDS011;26968;42.686;23.352;2023-06-10T01:57:35;21.42;;;9.18;;
41233;SDS011;26968;42.686;23.352;2023-06-10T02:00:01;14.13;;;8.48;;
41233;SDS011;26968;42.686;23.352;2023-06-10T02:02:28;12.20;;;7.90;;
41233;SDS011;26968;42.686;23.352;2023-06-10T02:04:53;11.57;;;8.20;;
41233;SDS011;26968;42.686;23.352;2023-06-10T02:07:19;11.65;;;7.90;;
41233;SDS011;26968;42.686;23.352;2023-06-10T02:09:44;14.23;;;8.25;;
41233;SDS011;26968;42.686;23.352;2023-06-10T02:12:10;10.73;;;7.55;;
41233;SDS011;26968;42.686;23.352;2023-06-10T02:14:35;13.77;;;7.45;;
41233;SDS011;26968;42.686;23.352;2023-06-10T02:17:01;15.18;;;8.18;;
41233;SDS011;26968;42.686;23.352;2023-06-10T02:19:26;10.27;;;7.30;;
41233;SDS011;26968;42.686;23.352;2023-06-10T02:21:52;10.55;;;7.00;;
41233;SDS011;26968;42.686;23.352;2023-06-10T02:24:18;10.23;;;6.60;;
41233;SDS011;26968;42.686;23.352;2023-06-10T02:26:43;11.98;;;7.55;;
41233;SDS011;26968;42.686;23.352;2023-06-10T02:29:09;11.43;;;7.15;;
41233;SDS011;26968;42.686;23.352;2023-06-10T02:31:34;11.70;;;6.72;;
41233;SDS011;26968;42.686;23.352;2023-06-10T02:34:00;12.75;;;7.35;;
41233;SDS011;26968;42.686;23.352;2023-06-10T02:36:27;8.60;;;6.72;;
41233;SDS011;26968;42.686;23.352;2023-06-10T02:38:53;13.75;;;6.20;;
41233;SDS011;26968;42.686;23.352;2023-06-10T02:41:19;16.67;;;6.88;;
41233;SDS011;26968;42.686;23.352;2023-06-10T02:43:46;10.05;;;6.88;;
41233;SDS011;26968;42.686;23.352;2023-06-10T02:46:12;11.68;;;6.40;;
41233;SDS011;26968;42.686;23.352;2023-06-10T02:48:41;13.52;;;7.28;;
41233;SDS011;26968;42.686;23.352;2023-06-10T02:51:10;17.10;;;6.97;;
41233;SDS011;26968;42.686;23.352;2023-06-10T02:53:36;13.57;;;7.15;;
41233;SDS011;26968;42.686;23.352;2023-06-10T02:56:01;14.43;;;7.20;;
41233;SDS011;26968;42.686;23.352;2023-06-10T02:58:27;9.35;;;6.40;;
41233;SDS011;26968;42.686;23.352;2023-06-10T03:00:53;14.73;;;7.32;;
41233;SDS011;26968;42.686;23.352;2023-06-10T03:03:18;17.50;;;8.35;;
41233;SDS011;26968;42.686;23.352;2023-06-10T03:05:45;13.52;;;7.75;;
41233;SDS011;26968;42.686;23.352;2023-06-10T03:08:10;8.02;;;6.82;;
41233;SDS011;26968;42.686;23.352;2023-06-10T03:10:35;16.55;;;8.02;;
41233;SDS011;26968;42.686;23.352;2023-06-10T03:13:01;12.15;;;7.60;;
41233;SDS011;26968;42.686;23.352;2023-06-10T03:15:26;17.15;;;8.60;;
41233;SDS011;26968;42.686;23.352;2023-06-10T03:17:54;20.15;;;8.18;;
41233;SDS011;26968;42.686;23.352;2023-06-10T03:20:20;12.05;;;7.03;;
41233;SDS011;26968;42.686;23.352;2023-06-10T03:22:46;16.40;;;8.63;;
41233;SDS011;26968;42.686;23.352;2023-06-10T03:25:12;16.15;;;8.23;;
41233;SDS011;26968;42.686;23.352;2023-06-10T03:27:39;17.05;;;8.50;;
41233;SDS011;26968;42.686;23.352;2023-06-10T03:30:05;19.83;;;9.13;;
41233;SDS011;26968;42.686;23.352;2023-06-10T03:32:31;14.32;;;8.52;;
41233;SDS011;26968;42.686;23.352;2023-06-10T03:34:57;14.25;;;8.45;;
41233;SDS011;26968;42.686;23.352;2023-06-10T03:37:23;18.10;;;9.20;;
41233;SDS011;26968;42.686;23.352;2023-06-10T03:39:49;18.95;;;8.82;;
41233;SDS011;26968;42.686;23.352;2023-06-10T03:42:15;14.52;;;7.80;;
41233;SDS011;26968;42.686;23.352;2023-06-10T03:44:40;15.52;;;8.05;;
41233;SDS011;26968;42.686;23.352;2023-06-10T03:47:06;15.55;;;8.00;;
41233;SDS011;26968;42.686;23.352;2023-06-10T03:49:31;13.25;;;6.95;;
41233;SDS011;26968;42.686;23.352;2023-06-10T03:51:58;14.18;;;6.88;;
41233;SDS011;26968;42.686;23.352;2023-06-10T03:54:24;22.92;;;6.47;;
41233;SDS011;26968;42.686;23.352;2023-06-10T03:56:49;8.10;;;6.03;;
41233;SDS011;26968;42.686;23.352;2023-06-10T03:59:15;13.18;;;5.68;;
41233;SDS011;26968;42.686;23.352;2023-06-10T04:01:41;10.80;;;6.82;;
41233;SDS011;26968;42.686;23.352;2023-06-10T04:04:06;7.65;;;5.32;;
41233;SDS011;26968;42.686;23.352;2023-06-10T04:06:32;9.73;;;5.50;;
41233;SDS011;26968;42.686;23.352;2023-06-10T04:08:57;17.77;;;6.03;;
41233;SDS011;26968;42.686;23.352;2023-06-10T04:11:24;9.20;;;5.95;;
41233;SDS011;26968;42.686;23.352;2023-06-10T04:13:49;14.02;;;6.07;;
41233;SDS011;26968;42.686;23.352;2023-06-10T04:16:15;20.73;;;7.07;;
41233;SDS011;26968;42.686;23.352;2023-06-10T04:18:41;11.88;;;6.20;;
41233;SDS011;26968;42.686;23.352;2023-06-10T04:21:07;10.38;;;6.00;;
41233;SDS011;26968;42.686;23.352;2023-06-10T04:23:33;12.65;;;5.45;;
41233;SDS011;26968;42.686;23.352;2023-06-10T04:26:00;13.57;;;6.15;;
41233;SDS011;26968;42.686;23.352;2023-06-10T04:28:27;10.48;;;5.55;;
41233;SDS011;26968;42.686;23.352;2023-06-10T04:30:52;11.25;;;5.57;;
41233;SDS011;26968;42.686;23.352;2023-06-10T04:33:18;10.02;;;5.78;;
41233;SDS011;26968;42.686;23.352;2023-06-10T04:35:43;14.57;;;6.20;;
41233;SDS011;26968;42.686;23.352;2023-06-10T04:38:09;13.57;;;5.55;;
41233;SDS011;26968;42.686;23.352;2023-06-10T04:40:35;9.95;;;6.30;;
41233;SDS011;26968;42.686;23.352;2023-06-10T04:43:00;11.15;;;5.63;;
41233;SDS011;26968;42.686;23.352;2023-06-10T04:45:25;19.33;;;10.50;;
41233;SDS011;26968;42.686;23.352;2023-06-10T04:47:51;14.65;;;10.48;;
41233;SDS011;26968;42.686;23.352;2023-06-10T04:50:16;12.45;;;8.13;;
41233;SDS011;26968;42.686;23.352;2023-06-10T04:52:42;10.35;;;6.65;;
41233;SDS011;26968;42.686;23.352;2023-06-10T04:55:07;11.23;;;6.90;;
41233;SDS011;26968;42.686;23.352;2023-06-10T04:57:33;10.77;;;6.55;;
41233;SDS011;26968;42.686;23.352;2023-06-10T05:00:00;8.57;;;6.10;;
41233;SDS011;26968;42.686;23.352;2023-06-10T05:02:26;10.93;;;6.53;;
41233;SDS011;26968;42.686;23.352;2023-06-10T05:04:51;9.13;;;6.47;;
41233;SDS011;26968;42.686;23.352;2023-06-10T05:07:18;14.27;;;6.82;;
41233;SDS011;26968;42.686;23.352;2023-06-10T05:09:43;9.75;;;6.55;;
41233;SDS011;26968;42.686;23.352;2023-06-10T05:12:10;11.48;;;6.95;;
41233;SDS011;26968;42.686;23.352;2023-06-10T05:14:35;12.98;;;6.03;;
41233;SDS011;26968;42.686;23.352;2023-06-10T05:17:01;14.57;;;7.72;;
41233;SDS011;26968;42.686;23.352;2023-06-10T05:19:26;11.05;;;7.82;;
41233;SDS011;26968;42.686;23.352;2023-06-10T05:21:52;12.75;;;8.20;;
41233;SDS011;26968;42.686;23.352;2023-06-10T05:24:17;11.13;;;7.45;;
41233;SDS011;26968;42.686;23.352;2023-06-10T05:26:43;13.98;;;8.07;;
41233;SDS011;26968;42.686;23.352;2023-06-10T05:29:09;12.77;;;7.80;;
41233;SDS011;26968;42.686;23.352;2023-06-10T05:31:34;13.82;;;8.38;;
41233;SDS011;26968;42.686;23.352;2023-06-10T05:34:00;13.95;;;9.32;;
41233;SDS011;26968;42.686;23.352;2023-06-10T05:36:25;15.10;;;8.63;;
41233;SDS011;26968;42.686;23.352;2023-06-10T05:38:51;14.88;;;8.77;;
41233;SDS011;26968;42.686;23.352;2023-06-10T05:41:17;27.83;;;10.20;;
41233;SDS011;26968;42.686;23.352;2023-06-10T05:43:42;22.33;;;11.35;;
41233;SDS011;26968;42.686;23.352;2023-06-10T05:46:08;14.95;;;9.10;;
41233;SDS011;26968;42.686;23.352;2023-06-10T05:48:33;18.80;;;8.95;;
41233;SDS011;26968;42.686;23.352;2023-06-10T05:50:59;18.13;;;9.65;;
41233;SDS011;26968;42.686;23.352;2023-06-10T05:53:24;20.67;;;9.82;;
41233;SDS011;26968;42.686;23.352;2023-06-10T05:55:50;22.90;;;9.52;;
41233;SDS011;26968;42.686;23.352;2023-06-10T05:58:16;22.95;;;9.10;;
41233;SDS011;26968;42.686;23.352;2023-06-10T06:00:41;25.83;;;10.43;;
41233;SDS011;26968;42.686;23.352;2023-06-10T06:03:07;18.00;;;10.10;;
41233;SDS011;26968;42.686;23.352;2023-06-10T06:05:33;25.38;;;10.88;;
41233;SDS011;26968;42.686;23.352;2023-06-10T06:08:18;16.13;;;9.82;;
41233;SDS011;26968;42.686;23.352;2023-06-10T06:10:47;19.00;;;9.90;;
41233;SDS011;26968;42.686;23.352;2023-06-10T06:13:15;26.50;;;11.18;;
41233;SDS011;26968;42.686;23.352;2023-06-10T06:15:40;20.05;;;9.00;;
41233;SDS011;26968;42.686;23.352;2023-06-10T06:18:06;16.08;;;9.38;;
41233;SDS011;26968;42.686;23.352;2023-06-10T06:20:31;20.77;;;10.90;;
41233;SDS011;26968;42.686;23.352;2023-06-10T06:22:56;20.77;;;10.40;;
41233;SDS011;26968;42.686;23.352;2023-06-10T06:25:22;17.38;;;9.48;;
41233;SDS011;26968;42.686;23.352;2023-06-10T06:27:48;17.70;;;9.70;;
41233;SDS011;26968;42.686;23.352;2023-06-10T06:30:13;16.05;;;9.90;;
41233;SDS011;26968;42.686;23.352;2023-06-10T06:32:39;26.48;;;10.75;;
41233;SDS011;26968;42.686;23.352;2023-06-10T06:35:04;13.40;;;8.50;;
41233;SDS011;26968;42.686;23.352;2023-06-10T06:37:32;18.15;;;9.23;;
41233;SDS011;26968;42.686;23.352;2023-06-10T06:39:58;17.17;;;9.10;;
41233;SDS011;26968;42.686;23.352;2023-06-10T06:42:24;14.48;;;9.00;;
41233;SDS011;26968;42.686;23.352;2023-06-10T06:44:49;16.65;;;9.18;;
41233;SDS011;26968;42.686;23.352;2023-06-10T06:47:15;17.05;;;8.00;;
41233;SDS011;26968;42.686;23.352;2023-06-10T06:49:42;16.42;;;7.88;;
41233;SDS011;26968;42.686;23.352;2023-06-10T06:52:08;16.02;;;8.45;;
41233;SDS011;26968;42.686;23.352;2023-06-10T06:54:34;16.45;;;8.32;;
41233;SDS011;26968;42.686;23.352;2023-06-10T06:56:59;18.17;;;8.60;;
41233;SDS011;26968;42.686;23.352;2023-06-10T06:59:25;19.35;;;9.75;;
41233;SDS011;26968;42.686;23.352;2023-06-10T07:01:50;18.25;;;9.88;;
41233;SDS011;26968;42.686;23.352;2023-06-10T07:04:16;39.47;;;22.77;;
41233;SDS011;26968;42.686;23.352;2023-06-10T07:06:41;11.05;;;6.70;;
41233;SDS011;26968;42.686;23.352;2023-06-10T07:09:07;11.45;;;6.57;;
41233;SDS011;26968;42.686;23.352;2023-06-10T07:11:36;10.98;;;6.32;;
41233;SDS011;26968;42.686;23.352;2023-06-10T07:14:01;17.33;;;6.18;;
41233;SDS011;26968;42.686;23.352;2023-06-10T07:16:26;16.75;;;5.80;;
41233;SDS011;26968;42.686;23.352;2023-06-10T07:18:52;20.38;;;6.97;;
41233;SDS011;26968;42.686;23.352;2023-06-10T07:21:18;10.00;;;6.10;;
41233;SDS011;26968;42.686;23.352;2023-06-10T07:23:43;17.02;;;6.13;;
41233;SDS011;26968;42.686;23.352;2023-06-10T07:26:10;9.43;;;5.35;;
41233;SDS011;26968;42.686;23.352;2023-06-10T07:28:38;13.73;;;5.93;;
41233;SDS011;26968;42.686;23.352;2023-06-10T07:31:04;20.67;;;6.30;;
41233;SDS011;26968;42.686;23.352;2023-06-10T07:33:30;17.23;;;6.20;;
41233;SDS011;26968;42.686;23.352;2023-06-10T07:35:55;11.27;;;6.72;;
41233;SDS011;26968;42.686;23.352;2023-06-10T07:38:20;12.25;;;5.60;;
41233;SDS011;26968;42.686;23.352;2023-06-10T07:40:46;14.15;;;5.65;;
41233;SDS011;26968;42.686;23.352;2023-06-10T07:43:12;10.80;;;4.63;;
41233;SDS011;26968;42.686;23.352;2023-06-10T07:45:39;13.00;;;4.53;;
41233;SDS011;26968;42.686;23.352;2023-06-10T07:48:05;8.40;;;4.13;;
41233;SDS011;26968;42.686;23.352;2023-06-10T07:50:30;9.18;;;3.75;;
41233;SDS011;26968;42.686;23.352;2023-06-10T07:52:56;8.43;;;4.13;;
41233;SDS011;26968;42.686;23.352;2023-06-10T07:55:21;10.18;;;4.30;;
41233;SDS011;26968;42.686;23.352;2023-06-10T07:57:47;7.43;;;3.92;;
41233;SDS011;26968;42.686;23.352;2023-06-10T08:00:12;7.47;;;4.40;;
41233;SDS011;26968;42.686;23.352;2023-06-10T08:02:38;10.15;;;4.30;;
41233;SDS011;26968;42.686;23.352;2023-06-10T08:05:04;6.45;;;4.28;;
41233;SDS011;26968;42.686;23.352;2023-06-10T08:07:30;4.78;;;3.78;;
41233;SDS011;26968;42.686;23.352;2023-06-10T08:09:56;5.47;;;3.65;;
41233;SDS011;26968;42.686;23.352;2023-06-10T08:12:22;7.85;;;4.88;;
41233;SDS011;26968;42.686;23.352;2023-06-10T08:14:47;9.45;;;4.72;;
41233;SDS011;26968;42.686;23.352;2023-06-10T08:17:13;8.82;;;4.65;;
41233;SDS011;26968;42.686;23.352;2023-06-10T08:19:38;9.38;;;5.30;;
41233;SDS011;26968;42.686;23.352;2023-06-10T08:22:04;7.40;;;4.88;;
41233;SDS011;26968;42.686;23.352;2023-06-10T08:24:29;13.95;;;4.93;;
41233;SDS011;26968;42.686;23.352;2023-06-10T08:26:55;10.38;;;4.70;;
41233;SDS011;26968;42.686;23.352;2023-06-10T08:29:22;10.40;;;4.82;;
41233;SDS011;26968;42.686;23.352;2023-06-10T08:31:48;6.25;;;4.32;;
41233;SDS011;26968;42.686;23.352;2023-06-10T08:34:13;6.63;;;3.60;;
41233;SDS011;26968;42.686;23.352;2023-06-10T08:36:39;4.97;;;3.38;;
41233;SDS011;26968;42.686;23.352;2023-06-10T08:39:04;6.38;;;3.83;;
41233;SDS011;26968;42.686;23.352;2023-06-10T08:41:30;5.57;;;3.97;;
41233;SDS011;26968;42.686;23.352;2023-06-10T08:44:03;4.45;;;3.30;;
41233;SDS011;26968;42.686;23.352;2023-06-10T08:46:34;9.43;;;4.00;;
41233;SDS011;26968;42.686;23.352;2023-06-10T08:49:05;7.40;;;3.83;;
41233;SDS011;26968;42.686;23.352;2023-06-10T08:51:34;5.88;;;3.55;;
41233;SDS011;26968;42.686;23.352;2023-06-10T08:54:02;6.68;;;3.90;;
41233;SDS011;26968;42.686;23.352;2023-06-10T08:56:35;4.38;;;3.50;;
41233;SDS011;26968;42.686;23.352;2023-06-10T08:59:04;5.50;;;3.15;;
41233;SDS011;26968;42.686;23.352;2023-06-10T09:01:30;6.97;;;3.90;;
41233;SDS011;26968;42.686;23.352;2023-06-10T09:03:56;8.52;;;3.25;;
41233;SDS011;26968;42.686;23.352;2023-06-10T09:06:23;7.93;;;3.25;;
41233;SDS011;26968;42.686;23.352;2023-06-10T09:08:50;8.45;;;3.55;;
41233;SDS011;26968;42.686;23.352;2023-06-10T09:11:16;5.35;;;3.63;;
41233;SDS011;26968;42.686;23.352;2023-06-10T09:13:41;7.50;;;3.30;;
41233;SDS011;26968;42.686;23.352;2023-06-10T09:16:07;9.95;;;3.58;;
41233;SDS011;26968;42.686;23.352;2023-06-10T09:18:33;4.18;;;3.25;;
41233;SDS011;26968;42.686;23.352;2023-06-10T09:20:59;6.30;;;3.08;;
41233;SDS011;26968;42.686;23.352;2023-06-10T09:23:25;5.53;;;3.15;;
41233;SDS011;26968;42.686;23.352;2023-06-10T09:25:59;7.93;;;2.70;;
41233;SDS011;26968;42.686;23.352;2023-06-10T09:28:25;5.45;;;3.25;;
41233;SDS011;26968;42.686;23.352;2023-06-10T09:31:00;8.23;;;3.20;;
41233;SDS011;26968;42.686;23.352;2023-06-10T09:33:27;7.78;;;3.28;;
41233;SDS011;26968;42.686;23.352;2023-06-10T09:35:53;8.63;;;3.53;;
41233;SDS011;26968;42.686;23.352;2023-06-10T09:38:21;7.57;;;3.20;;
41233;SDS011;26968;42.686;23.352;2023-06-10T09:40:50;7.57;;;3.47;;
41233;SDS011;26968;42.686;23.352;2023-06-10T09:43:17;5.18;;;3.45;;
41233;SDS011;26968;42.686;23.352;2023-06-10T09:45:43;4.28;;;3.10;;
41233;SDS011;26968;42.686;23.352;2023-06-10T09:48:09;8.63;;;3.45;;
41233;SDS011;26968;42.686;23.352;2023-06-10T09:50:41;3.95;;;3.45;;
41233;SDS011;26968;42.686;23.352;2023-06-10T09:53:07;6.50;;;3.25;;
41233;SDS011;26968;42.686;23.352;2023-06-10T09:55:33;4.78;;;3.78;;
41233;SDS011;26968;42.686;23.352;2023-06-10T09:57:59;6.75;;;3.50;;
41233;SDS011;26968;42.686;23.352;2023-06-10T10:00:25;5.32;;;3.40;;
41233;SDS011;26968;42.686;23.352;2023-06-10T10:02:52;5.72;;;3.47;;
41233;SDS011;26968;42.686;23.352;2023-06-10T10:05:19;9.50;;;3.60;;
41233;SDS011;26968;42.686;23.352;2023-06-10T10:07:46;8.27;;;3.55;;
41233;SDS011;26968;42.686;23.352;2023-06-10T10:10:13;7.60;;;3.47;;
41233;SDS011;26968;42.686;23.352;2023-06-10T10:12:40;5.93;;;2.70;;
41233;SDS011;26968;42.686;23.352;2023-06-10T10:15:10;5.55;;;3.20;;
41233;SDS011;26968;42.686;23.352;2023-06-10T10:17:40;7.15;;;3.30;;
41233;SDS011;26968;42.686;23.352;2023-06-10T10:20:12;3.90;;;3.22;;
41233;SDS011;26968;42.686;23.352;2023-06-10T10:22:43;7.30;;;3.28;;
41233;SDS011;26968;42.686;23.352;2023-06-10T10:28:09;4.97;;;3.03;;
41233;SDS011;26968;42.686;23.352;2023-06-10T10:30:42;5.93;;;2.57;;
41233;SDS011;26968;42.686;23.352;2023-06-10T10:36:07;6.00;;;2.78;;
41233;SDS011;26968;42.686;23.352;2023-06-10T10:38:33;7.05;;;3.50;;
41233;SDS011;26968;42.686;23.352;2023-06-10T10:41:00;4.85;;;3.70;;
41233;SDS011;26968;42.686;23.352;2023-06-10T10:43:27;5.32;;;3.40;;
41233;SDS011;26968;42.686;23.352;2023-06-10T10:46:00;5.68;;;4.15;;
41233;SDS011;26968;42.686;23.352;2023-06-10T10:48:26;9.90;;;3.47;;
41233;SDS011;26968;42.686;23.352;2023-06-10T10:50:58;8.80;;;3.40;;
41233;SDS011;26968;42.686;23.352;2023-06-10T10:53:24;10.82;;;3.50;;
41233;SDS011;26968;42.686;23.352;2023-06-10T10:56:00;7.50;;;3.28;;
41233;SDS011;26968;42.686;23.352;2023-06-10T10:58:32;4.68;;;3.15;;
41233;SDS011;26968;42.686;23.352;2023-06-10T11:00:57;3.83;;;2.95;;
41233;SDS011;26968;42.686;23.352;2023-06-10T11:03:24;3.75;;;2.88;;
41233;SDS011;26968;42.686;23.352;2023-06-10T11:05:54;4.65;;;3.75;;
41233;SDS011;26968;42.686;23.352;2023-06-10T11:10:54;8.20;;;3.45;;
41233;SDS011;26968;42.686;23.352;2023-06-10T11:13:20;6.68;;;3.80;;
41233;SDS011;26968;42.686;23.352;2023-06-10T11:15:47;7.38;;;4.47;;
41233;SDS011;26968;42.686;23.352;2023-06-10T11:18:22;3.92;;;3.30;;
41233;SDS011;26968;42.686;23.352;2023-06-10T11:20:52;5.68;;;3.65;;
41233;SDS011;26968;42.686;23.352;2023-06-10T11:28:36;8.77;;;4.35;;
41233;SDS011;26968;42.686;23.352;2023-06-10T11:31:03;7.32;;;3.83;;
41233;SDS011;26968;42.686;23.352;2023-06-10T11:33:29;4.63;;;3.65;;
41233;SDS011;26968;42.686;23.352;2023-06-10T11:35:56;6.80;;;3.40;;
41233;SDS011;26968;42.686;23.352;2023-06-10T11:38:21;6.97;;;3.63;;
41233;SDS011;26968;42.686;23.352;2023-06-10T11:40:50;9.32;;;4.00;;
41233;SDS011;26968;42.686;23.352;2023-06-10T11:43:18;6.45;;;3.35;;
41233;SDS011;26968;42.686;23.352;2023-06-10T11:45:44;7.35;;;3.17;;
41233;SDS011;26968;42.686;23.352;2023-06-10T11:48:12;7.05;;;3.10;;
41233;SDS011;26968;42.686;23.352;2023-06-10T11:50:38;5.88;;;3.60;;
41233;SDS011;26968;42.686;23.352;2023-06-10T11:53:04;5.47;;;3.25;;
41233;SDS011;26968;42.686;23.352;2023-06-10T11:55:42;12.13;;;3.80;;
41233;SDS011;26968;42.686;23.352;2023-06-10T11:58:16;6.82;;;2.78;;
41233;SDS011;26968;42.686;23.352;2023-06-10T12:00:54;5.40;;;3.10;;
41233;SDS011;26968;42.686;23.352;2023-06-10T12:03:23;4.57;;;2.90;;
41233;SDS011;26968;42.686;23.352;2023-06-10T12:08:25;3.70;;;3.03;;
41233;SDS011;26968;42.686;23.352;2023-06-10T12:10:51;7.57;;;3.50;;
41233;SDS011;26968;42.686;23.352;2023-06-10T12:13:18;5.85;;;2.80;;
41233;SDS011;26968;42.686;23.352;2023-06-10T12:15:43;3.33;;;2.42;;
41233;SDS011;26968;42.686;23.352;2023-06-10T12:18:19;5.53;;;2.83;;
41233;SDS011;26968;42.686;23.352;2023-06-10T12:20:46;4.03;;;2.67;;
41233;SDS011;26968;42.686;23.352;2023-06-10T12:23:12;3.92;;;2.92;;
41233;SDS011;26968;42.686;23.352;2023-06-10T12:25:38;4.57;;;2.72;;
41233;SDS011;26968;42.686;23.352;2023-06-10T12:28:04;8.40;;;3.20;;
41233;SDS011;26968;42.686;23.352;2023-06-10T12:30:31;7.07;;;2.88;;
41233;SDS011;26968;42.686;23.352;2023-06-10T12:32:57;6.22;;;2.67;;
41233;SDS011;26968;42.686;23.352;2023-06-10T12:35:24;8.80;;;3.15;;
41233;SDS011;26968;42.686;23.352;2023-06-10T12:37:58;6.38;;;3.08;;
41233;SDS011;26968;42.686;23.352;2023-06-10T12:40:37;7.20;;;2.97;;
41233;SDS011;26968;42.686;23.352;2023-06-10T12:43:05;7.18;;;2.90;;
41233;SDS011;26968;42.686;23.352;2023-06-10T12:45:32;5.07;;;3.35;;
41233;SDS011;26968;42.686;23.352;2023-06-10T12:48:16;6.90;;;3.42;;
41233;SDS011;26968;42.686;23.352;2023-06-10T12:50:55;4.70;;;3.00;;
41233;SDS011;26968;42.686;23.352;2023-06-10T12:53:23;4.63;;;2.78;;
41233;SDS011;26968;42.686;23.352;2023-06-10T12:55:52;6.93;;;3.17;;
41233;SDS011;26968;42.686;23.352;2023-06-10T12:58:21;5.53;;;3.08;;
41233;SDS011;26968;42.686;23.352;2023-06-10T13:00:48;7.05;;;2.53;;
41233;SDS011;26968;42.686;23.352;2023-06-10T13:03:14;5.03;;;2.67;;
41233;SDS011;26968;42.686;23.352;2023-06-10T13:05:40;7.15;;;3.05;;
41233;SDS011;26968;42.686;23.352;2023-06-10T13:08:06;4.32;;;3.00;;
41233;SDS011;26968;42.686;23.352;2023-06-10T13:10:35;8.02;;;3.35;;
41233;SDS011;26968;42.686;23.352;2023-06-10T13:13:01;5.97;;;3.53;;
41233;SDS011;26968;42.686;23.352;2023-06-10T13:15:27;8.65;;;3.42;;
41233;SDS011;26968;42.686;23.352;2023-06-10T13:17:54;6.25;;;3.38;;
41233;SDS011;26968;42.686;23.352;2023-06-10T13:20:19;6.50;;;2.90;;
41233;SDS011;26968;42.686;23.352;2023-06-10T13:22:45;7.18;;;3.25;;
41233;SDS011;26968;42.686;23.352;2023-06-10T13:25:11;11.70;;;3.75;;
41233;SDS011;26968;42.686;23.352;2023-06-10T13:27:36;10.45;;;4.45;;
41233;SDS011;26968;42.686;23.352;2023-06-10T13:30:07;16.17;;;4.05;;
41233;SDS011;26968;42.686;23.352;2023-06-10T13:32:34;11.75;;;4.65;;
41233;SDS011;26968;42.686;23.352;2023-06-10T13:35:00;10.60;;;4.53;;
41233;SDS011;26968;42.686;23.352;2023-06-10T13:37:25;10.07;;;4.43;;
41233;SDS011;26968;42.686;23.352;2023-06-10T13:39:51;6.32;;;4.43;;
41233;SDS011;26968;42.686;23.352;2023-06-10T13:42:19;9.93;;;4.82;;
41233;SDS011;26968;42.686;23.352;2023-06-10T13:44:46;6.95;;;4.40;;
41233;SDS011;26968;42.686;23.352;2023-06-10T13:47:12;11.75;;;4.82;;
41233;SDS011;26968;42.686;23.352;2023-06-10T13:49:38;18.30;;;5.13;;
41233;SDS011;26968;42.686;23.352;2023-06-10T13:52:05;10.15;;;5.18;;
41233;SDS011;26968;42.686;23.352;2023-06-10T13:54:31;6.88;;;4.53;;
41233;SDS011;26968;42.686;23.352;2023-06-10T13:56:56;7.80;;;4.45;;
41233;SDS011;26968;42.686;23.352;2023-06-10T13:59:21;14.13;;;4.85;;
41233;SDS011;26968;42.686;23.352;2023-06-10T14:01:48;10.57;;;5.03;;
41233;SDS011;26968;42.686;23.352;2023-06-10T14:04:14;8.90;;;4.85;;
41233;SDS011;26968;42.686;23.352;2023-06-10T14:06:39;9.48;;;5.10;;
41233;SDS011;26968;42.686;23.352;2023-06-10T14:09:05;10.23;;;4.65;;
41233;SDS011;26968;42.686;23.352;2023-06-10T14:11:30;9.48;;;5.30;;
41233;SDS011;26968;42.686;23.352;2023-06-10T14:13:56;9.02;;;5.57;;
41233;SDS011;26968;42.686;23.352;2023-06-10T14:16:22;9.65;;;4.85;;
41233;SDS011;26968;42.686;23.352;2023-06-10T14:18:48;7.15;;;4.03;;
41233;SDS011;26968;42.686;23.352;2023-06-10T14:21:15;10.68;;;4.68;;
41233;SDS011;26968;42.686;23.352;2023-06-10T14:23:41;6.78;;;4.28;;
41233;SDS011;26968;42.686;23.352;2023-06-10T14:26:08;7.53;;;4.00;;
41233;SDS011;26968;42.686;23.352;2023-06-10T14:28:33;7.68;;;4.22;;
41233;SDS011;26968;42.686;23.352;2023-06-10T14:30:59;8.93;;;4.70;;
41233;SDS011;26968;42.686;23.352;2023-06-10T14:33:24;8.35;;;4.80;;
41233;SDS011;26968;42.686;23.352;2023-06-10T14:35:50;6.38;;;3.95;;
41233;SDS011;26968;42.686;23.352;2023-06-10T14:38:15;7.78;;;4.53;;
41233;SDS011;26968;42.686;23.352;2023-06-10T14:40:41;7.93;;;4.65;;
41233;SDS011;26968;42.686;23.352;2023-06-10T14:43:06;8.98;;;4.18;;
41233;SDS011;26968;42.686;23.352;2023-06-10T14:45:38;6.90;;;4.35;;